Terminal Aerodrome Forecast
Issued by NWS Jacksonville, FL

Home | Current Version | Previous Version | Text Only | Print | Product List | Glossary On
Versions: 1 2 3 4 5 6 7 8 9 10 11 12 13 14 15 16
383
FTUS42 KJAX 211734
TAFSSI
TAF
KSSI 211734Z 2118/2218 06013KT P6SM SCT050 SCT200
     FM212300 05007KT P6SM BKN035
     FM221300 10012G18KT P6SM VCSH BKN030=

USA.gov is the U.S. government's official web portal to all federal, state and local government web resources and services.